createdAt,value
2017-08-28T00:01:19.354Z,17.77
2017-08-28T00:03:46.859Z,20.30
2017-08-28T00:06:14.472Z,20.30
2017-08-28T00:08:41.970Z,19.07
2017-08-28T00:11:09.596Z,20.00
2017-08-28T00:13:37.239Z,18.00
2017-08-28T00:16:04.818Z,20.30
2017-08-28T00:18:32.354Z,18.50
2017-08-28T00:20:59.878Z,18.70
2017-08-28T00:23:27.391Z,19.83
2017-08-28T00:25:54.915Z,20.03
2017-08-28T00:28:22.419Z,18.73
2017-08-28T00:30:50.858Z,19.33
2017-08-28T00:33:19.243Z,18.70
2017-08-28T00:35:47.523Z,18.57
2017-08-28T00:38:15.038Z,17.70
2017-08-28T00:40:42.639Z,18.60
2017-08-28T00:43:10.198Z,19.07
2017-08-28T00:45:37.704Z,19.57
2017-08-28T00:48:05.227Z,20.00
2017-08-28T00:50:32.766Z,20.17
2017-08-28T00:53:00.402Z,19.83
2017-08-28T00:55:28.086Z,20.33
2017-08-28T00:57:55.607Z,19.13
2017-08-28T01:00:23.827Z,20.00
2017-08-28T01:02:51.392Z,19.93
2017-08-28T01:05:18.950Z,21.03
2017-08-28T01:07:46.506Z,19.80
2017-08-28T01:10:14.992Z,22.70
2017-08-28T01:12:42.548Z,21.37
2017-08-28T01:15:10.071Z,20.13
2017-08-28T01:17:37.663Z,21.70
2017-08-28T01:20:05.327Z,20.57
2017-08-28T01:22:32.975Z,20.67
2017-08-28T01:25:00.499Z,22.93
2017-08-28T01:27:28.005Z,23.70
2017-08-28T01:29:56.275Z,22.50
2017-08-28T01:32:23.779Z,24.17
2017-08-28T01:34:51.395Z,22.40
2017-08-28T01:37:18.964Z,22.60
2017-08-28T01:39:46.923Z,19.57
2017-08-28T01:42:14.746Z,21.23
2017-08-28T01:44:42.346Z,21.33
2017-08-28T01:47:09.898Z,21.17
2017-08-28T01:49:38.279Z,21.67
2017-08-28T01:52:05.799Z,22.40
2017-08-28T01:54:33.383Z,21.90
2017-08-28T01:57:00.954Z,20.17
2017-08-28T01:59:29.239Z,20.97
2017-08-28T02:01:56.757Z,20.00
2017-08-28T02:04:24.262Z,23.13
2017-08-28T02:06:51.813Z,22.23
2017-08-28T02:09:20.035Z,19.53
2017-08-28T02:11:47.642Z,21.00
2017-08-28T02:14:15.206Z,21.43
2017-08-28T02:16:42.767Z,20.23
2017-08-28T02:19:10.275Z,21.10
2017-08-28T02:21:37.797Z,19.17
2017-08-28T02:24:05.558Z,20.03
2017-08-28T02:26:33.714Z,21.70
2017-08-28T02:29:01.227Z,21.50
2017-08-28T02:31:28.838Z,20.80
2017-08-28T02:33:56.395Z,20.53
2017-08-28T02:36:23.959Z,17.20
2017-08-28T02:38:51.547Z,21.03
2017-08-28T02:41:19.174Z,21.13
2017-08-28T02:43:46.730Z,20.60
2017-08-28T02:46:14.230Z,21.70
2017-08-28T02:48:41.750Z,20.00
2017-08-28T02:51:09.315Z,19.80
2017-08-28T02:53:36.866Z,22.30
2017-08-28T02:56:04.375Z,18.60
2017-08-28T02:58:31.994Z,19.63
2017-08-28T03:00:59.542Z,22.73
2017-08-28T03:03:27.098Z,21.20
2017-08-28T03:05:55.378Z,24.30
2017-08-28T03:08:22.934Z,24.13
2017-08-28T03:10:50.434Z,22.00
2017-08-28T03:13:18.050Z,22.10
2017-08-28T03:15:46.479Z,26.50
2017-08-28T03:18:14.098Z,24.13
2017-08-28T03:20:42.465Z,23.43
2017-08-28T03:23:11.458Z,23.27
2017-08-28T03:25:39.023Z,24.67
2017-08-28T03:28:06.686Z,24.07
2017-08-28T03:30:34.243Z,23.53
2017-08-28T03:33:01.802Z,22.77
2017-08-28T03:35:29.306Z,23.60
2017-08-28T03:37:57.194Z,22.90
2017-08-28T03:40:24.694Z,22.97
2017-08-28T03:42:52.198Z,21.90
2017-08-28T03:45:19.723Z,22.13
2017-08-28T03:47:47.227Z,22.20
2017-08-28T03:50:14.742Z,21.50
2017-08-28T03:52:42.243Z,24.83
2017-08-28T03:55:09.763Z,24.57
2017-08-28T03:57:37.271Z,23.80
2017-08-28T04:00:04.795Z,22.53
2017-08-28T04:02:33.006Z,24.80
2017-08-28T04:05:01.295Z,23.67
2017-08-28T04:07:28.803Z,22.10
2017-08-28T04:09:56.327Z,24.90
2017-08-28T04:12:23.879Z,25.03
2017-08-28T04:14:51.403Z,25.17
2017-08-28T04:17:18.906Z,22.73
2017-08-28T04:19:46.655Z,22.43
2017-08-28T04:22:14.154Z,24.27
2017-08-28T04:24:41.674Z,25.27
2017-08-28T04:27:09.171Z,24.30
2017-08-28T04:29:36.674Z,24.97
2017-08-28T04:32:05.426Z,25.17
2017-08-28T04:34:33.032Z,26.60
2017-08-28T04:37:00.559Z,24.43
2017-08-28T04:39:28.067Z,25.87
2017-08-28T04:41:55.583Z,24.07
2017-08-28T04:44:23.879Z,22.93
2017-08-28T04:46:51.451Z,22.03
2017-08-28T04:49:20.127Z,22.90
2017-08-28T04:51:47.749Z,23.57
2017-08-28T04:54:15.682Z,23.00
2017-08-28T04:56:43.211Z,21.73
2017-08-28T04:59:10.911Z,25.00
2017-08-28T05:01:38.535Z,24.53
2017-08-28T05:04:06.907Z,26.90
2017-08-28T05:06:34.426Z,24.30
2017-08-28T05:09:02.027Z,28.60
2017-08-28T05:11:29.591Z,28.40
2017-08-28T05:13:57.142Z,26.23
2017-08-28T05:16:24.664Z,24.43
2017-08-28T05:18:52.166Z,26.13
2017-08-28T05:21:20.556Z,26.10
2017-08-28T05:23:48.094Z,24.07
2017-08-28T05:26:15.762Z,24.33
2017-08-28T05:28:43.322Z,26.70
2017-08-28T05:31:11.639Z,26.50
2017-08-28T05:33:39.158Z,26.60
2017-08-28T05:36:07.539Z,28.67
2017-08-28T05:38:35.094Z,26.73
2017-08-28T05:41:03.000Z,28.50
2017-08-28T05:43:30.637Z,27.10
2017-08-28T05:45:58.179Z,27.83
2017-08-28T05:48:25.743Z,27.77
2017-08-28T05:50:54.063Z,29.60
2017-08-28T05:53:21.589Z,26.37
2017-08-28T05:55:49.134Z,26.47
2017-08-28T05:58:16.794Z,29.10
2017-08-28T06:00:44.462Z,27.63
2017-08-28T06:03:12.014Z,27.60
2017-08-28T06:05:39.570Z,28.40
2017-08-28T06:08:07.126Z,27.90
2017-08-28T06:10:34.690Z,29.63
2017-08-28T06:13:02.216Z,29.80
2017-08-28T06:15:29.724Z,26.37
2017-08-28T06:17:57.271Z,30.53
2017-08-28T06:20:24.823Z,30.70
2017-08-28T06:22:52.387Z,31.80
2017-08-28T06:25:19.939Z,33.30
2017-08-28T06:27:47.502Z,34.90
2017-08-28T06:30:15.159Z,33.23
2017-08-28T06:32:42.723Z,35.30
2017-08-28T06:35:10.994Z,34.20
2017-08-28T06:37:38.616Z,31.87
2017-08-28T06:40:06.215Z,34.03
2017-08-28T06:42:33.778Z,28.37
2017-08-28T06:45:01.299Z,30.87
2017-08-28T06:47:28.808Z,31.80
2017-08-28T06:49:56.335Z,28.47
2017-08-28T06:52:23.833Z,26.33
2017-08-28T06:54:51.375Z,29.73
2017-08-28T06:57:18.926Z,27.90
2017-08-28T06:59:46.482Z,26.77
2017-08-28T07:02:14.038Z,29.20
2017-08-28T07:04:41.898Z,32.20
2017-08-28T07:07:09.479Z,29.13
2017-08-28T07:09:37.023Z,31.77
2017-08-28T07:12:04.590Z,29.03
2017-08-28T07:14:32.147Z,29.40
2017-08-28T07:16:59.706Z,32.73
2017-08-28T07:19:27.267Z,32.47
2017-08-28T07:21:55.847Z,31.23
2017-08-28T07:24:24.122Z,31.40
2017-08-28T07:26:52.398Z,30.10
2017-08-28T07:29:19.903Z,33.10
2017-08-28T07:31:47.533Z,33.33
2017-08-28T07:34:15.934Z,32.07
2017-08-28T07:36:43.455Z,30.90
2017-08-28T07:39:11.826Z,33.50
2017-08-28T07:41:39.390Z,34.30
2017-08-28T07:44:06.950Z,31.17
2017-08-28T07:46:34.524Z,34.20
2017-08-28T07:49:02.045Z,30.70
2017-08-28T07:51:29.550Z,31.73
2017-08-28T07:53:57.087Z,31.37
2017-08-28T07:56:24.642Z,31.47
2017-08-28T07:58:52.202Z,29.63
2017-08-28T08:01:19.707Z,28.57
2017-08-28T08:03:47.227Z,28.40
2017-08-28T08:06:14.735Z,30.60
2017-08-28T08:08:42.287Z,31.47
2017-08-28T08:11:10.012Z,30.10
2017-08-28T08:13:37.518Z,30.23
2017-08-28T08:16:05.112Z,30.47
2017-08-28T08:18:32.611Z,31.47
2017-08-28T08:21:00.227Z,32.43
2017-08-28T08:23:27.842Z,33.73
2017-08-28T08:25:55.455Z,30.77
2017-08-28T08:28:23.314Z,31.40
2017-08-28T08:30:50.838Z,30.43
2017-08-28T08:46:40.470Z,25.93
2017-08-28T08:49:07.981Z,27.30
2017-08-28T08:51:35.966Z,25.70
2017-08-28T08:54:03.574Z,24.47
2017-08-28T08:56:32.312Z,25.33
2017-08-28T08:59:00.695Z,27.07
2017-08-28T09:01:28.251Z,30.40
2017-08-28T09:03:55.759Z,26.50
2017-08-28T09:06:23.312Z,25.67
2017-08-28T09:08:50.927Z,24.50
2017-08-28T09:11:19.283Z,24.47
2017-08-28T09:13:47.014Z,25.33
2017-08-28T09:16:14.514Z,24.90
2017-08-28T09:18:42.084Z,23.73
2017-08-28T09:21:09.648Z,25.97
2017-08-28T09:23:37.171Z,21.03
2017-08-28T09:26:04.678Z,23.60
2017-08-28T09:28:32.216Z,24.23
2017-08-28T09:31:00.494Z,22.93
2017-08-28T09:33:28.039Z,23.23
2017-08-28T09:35:56.107Z,22.77
2017-08-28T09:38:23.691Z,22.03
2017-08-28T09:40:51.243Z,20.23
2017-08-28T09:43:18.781Z,20.20
2017-08-28T09:45:47.046Z,21.13
2017-08-28T09:48:14.555Z,22.00
2017-08-28T09:50:42.087Z,21.50
2017-08-28T09:53:09.758Z,19.10
2017-08-28T09:55:37.276Z,18.03
2017-08-28T09:58:04.870Z,17.83
2017-08-28T10:00:32.432Z,19.77
2017-08-28T10:02:59.991Z,20.90
2017-08-28T10:05:27.515Z,17.00
2017-08-28T10:07:55.220Z,18.57
2017-08-28T10:10:22.747Z,18.37
2017-08-28T10:12:50.430Z,16.40
2017-08-28T10:15:18.571Z,16.20
2017-08-28T10:17:46.078Z,16.67
2017-08-28T10:20:13.723Z,16.50
2017-08-28T10:22:41.282Z,19.73
2017-08-28T10:25:08.941Z,17.80
2017-08-28T10:27:36.468Z,16.40
2017-08-28T10:30:04.175Z,15.53
2017-08-28T10:32:31.722Z,15.27
2017-08-28T10:35:01.946Z,16.00
2017-08-28T10:37:29.507Z,16.43
2017-08-28T10:39:57.016Z,14.73
2017-08-28T10:42:24.543Z,14.80
2017-08-28T10:44:52.090Z,14.53
2017-08-28T10:47:19.630Z,15.07
2017-08-28T10:49:47.203Z,14.53
2017-08-28T10:52:15.366Z,14.43
2017-08-28T10:54:42.930Z,14.53
2017-08-28T10:57:10.515Z,14.50
2017-08-28T10:59:38.047Z,14.00
2017-08-28T11:02:05.570Z,13.60
2017-08-28T11:04:33.171Z,14.33
2017-08-28T11:07:00.722Z,13.10
2017-08-28T11:09:28.278Z,16.27
2017-08-28T11:11:55.943Z,12.87
2017-08-28T11:14:23.498Z,11.97
2017-08-28T11:16:51.073Z,13.37
2017-08-28T11:19:18.604Z,11.23
2017-08-28T11:21:46.895Z,14.90
2017-08-28T11:24:14.450Z,11.57
2017-08-28T11:26:42.006Z,13.37
2017-08-28T11:29:09.571Z,12.57
2017-08-28T11:31:37.075Z,13.03
2017-08-28T11:34:04.606Z,12.97
2017-08-28T11:36:32.150Z,12.87
2017-08-28T11:38:59.685Z,11.70
2017-08-28T11:41:27.262Z,12.00
2017-08-28T11:43:55.232Z,11.80
2017-08-28T11:46:22.895Z,12.27
2017-08-28T11:48:50.450Z,10.63
2017-08-28T11:51:18.011Z,12.30
2017-08-28T11:53:45.938Z,12.03
2017-08-28T11:56:13.460Z,11.00
2017-08-28T11:58:40.966Z,10.60
2017-08-28T12:01:08.554Z,11.30
2017-08-28T12:03:36.062Z,10.47
2017-08-28T12:06:03.667Z,11.17
2017-08-28T12:08:31.246Z,12.07
2017-08-28T12:10:58.766Z,11.73
2017-08-28T12:13:27.038Z,10.50
2017-08-28T12:15:54.622Z,10.50
2017-08-28T12:18:22.851Z,10.50
2017-08-28T12:20:50.495Z,10.40
2017-08-28T12:23:18.019Z,11.77
2017-08-28T12:25:46.271Z,12.10
2017-08-28T12:28:13.914Z,11.93
2017-08-28T12:30:41.515Z,12.60
2017-08-28T12:33:09.033Z,11.00
2017-08-28T12:35:36.542Z,12.17
2017-08-28T12:38:04.072Z,12.03
2017-08-28T12:40:32.358Z,12.47
2017-08-28T12:43:00.742Z,11.80
2017-08-28T12:45:28.248Z,11.20
2017-08-28T12:47:55.863Z,11.03
2017-08-28T12:50:23.418Z,11.73
2017-08-28T12:52:50.974Z,11.37
2017-08-28T12:55:19.358Z,11.10
2017-08-28T12:57:46.919Z,11.50
2017-08-28T13:00:14.426Z,11.30
2017-08-28T13:02:41.931Z,11.50
2017-08-28T13:05:09.455Z,11.10
2017-08-28T13:07:37.051Z,10.87
2017-08-28T13:10:04.607Z,10.57
2017-08-28T13:12:32.183Z,10.50
2017-08-28T13:14:59.702Z,11.33
2017-08-28T13:17:27.234Z,11.73
2017-08-28T13:19:54.923Z,10.53
2017-08-28T13:22:22.514Z,11.90
2017-08-28T13:24:50.041Z,12.13
2017-08-28T13:27:17.811Z,10.47
2017-08-28T13:29:45.391Z,11.23
2017-08-28T13:32:13.640Z,11.03
2017-08-28T13:34:41.946Z,11.10
2017-08-28T13:37:10.171Z,11.23
2017-08-28T13:39:37.703Z,11.57
2017-08-28T13:42:05.207Z,10.67
2017-08-28T13:44:32.794Z,11.23
2017-08-28T13:47:01.167Z,11.80
2017-08-28T13:49:29.243Z,10.80
2017-08-28T13:51:56.767Z,13.73
2017-08-28T13:54:24.267Z,11.87
2017-08-28T13:56:51.787Z,11.53
2017-08-28T13:59:20.218Z,10.73
2017-08-28T14:01:47.754Z,10.70
2017-08-28T14:04:15.313Z,10.20
2017-08-28T14:06:42.831Z,11.17
2017-08-28T14:09:10.339Z,11.00
2017-08-28T14:11:37.887Z,10.00
2017-08-28T14:14:05.394Z,11.33
2017-08-28T14:16:33.748Z,10.30
2017-08-28T14:19:01.266Z,9.73
2017-08-28T14:21:28.882Z,10.20
2017-08-28T14:23:56.400Z,10.47
2017-08-28T14:26:23.942Z,12.07
2017-08-28T14:28:51.518Z,11.00
2017-08-28T14:31:19.946Z,9.33
2017-08-28T14:33:47.551Z,10.00
2017-08-28T14:36:15.283Z,11.20
2017-08-28T14:38:42.888Z,9.97
2017-08-28T14:41:10.439Z,10.43
2017-08-28T14:43:37.994Z,10.20
2017-08-28T14:46:05.558Z,10.03
2017-08-28T14:48:33.074Z,9.60
2017-08-28T14:51:00.667Z,9.30
2017-08-28T14:53:28.234Z,9.30
2017-08-28T14:55:56.194Z,8.50
2017-08-28T14:58:23.759Z,9.07
2017-08-28T15:00:51.315Z,8.33
2017-08-28T15:03:18.874Z,8.27
2017-08-28T15:05:46.435Z,7.77
2017-08-28T15:08:13.931Z,8.00
2017-08-28T15:10:41.551Z,7.27
2017-08-28T15:13:10.071Z,7.63
2017-08-28T15:15:37.590Z,8.10
2017-08-28T15:18:05.954Z,7.87
2017-08-28T15:20:33.526Z,8.00
2017-08-28T15:23:01.090Z,8.17
2017-08-28T15:25:28.651Z,7.30
2017-08-28T15:27:56.309Z,7.30
2017-08-28T15:30:23.866Z,6.87
2017-08-28T15:32:51.370Z,7.50
2017-08-28T15:35:18.982Z,8.20
2017-08-28T15:37:46.487Z,6.80
2017-08-28T15:40:14.027Z,7.90
2017-08-28T15:42:41.526Z,7.63
2017-08-28T15:45:09.035Z,7.57
2017-08-28T15:47:36.574Z,8.73
2017-08-28T15:50:04.894Z,9.20
2017-08-28T15:52:32.509Z,8.80
2017-08-28T15:55:02.934Z,8.70
2017-08-28T15:57:30.452Z,8.80
2017-08-28T15:59:57.950Z,8.83
2017-08-28T16:02:25.466Z,9.47
2017-08-28T16:04:52.969Z,9.17
2017-08-28T16:07:20.499Z,9.80
2017-08-28T16:09:48.086Z,10.00
2017-08-28T16:12:15.607Z,9.80
2017-08-28T16:14:43.111Z,9.20
2017-08-28T16:17:10.661Z,9.47
2017-08-28T16:19:38.218Z,8.50
2017-08-28T16:22:05.779Z,9.60
2017-08-28T16:24:33.334Z,9.43
2017-08-28T16:27:01.406Z,9.83
2017-08-28T16:29:28.927Z,9.20
2017-08-28T16:31:56.839Z,10.10
2017-08-28T16:34:25.071Z,9.60
2017-08-28T16:36:52.666Z,8.83
2017-08-28T16:39:20.191Z,10.53
2017-08-28T16:41:47.782Z,9.50
2017-08-28T16:44:15.307Z,10.10
2017-08-28T16:46:42.907Z,8.47
2017-08-28T16:49:10.462Z,8.50
2017-08-28T16:51:38.023Z,7.63
2017-08-28T16:54:05.531Z,7.90
2017-08-28T16:56:33.046Z,9.23
2017-08-28T16:59:00.701Z,8.27
2017-08-28T17:01:28.213Z,9.17
2017-08-28T17:03:55.718Z,9.30
2017-08-28T17:06:23.270Z,8.40
2017-08-28T17:08:50.762Z,8.87
2017-08-28T17:11:18.290Z,8.60
2017-08-28T17:13:46.260Z,8.30
2017-08-28T17:16:13.822Z,8.70
2017-08-28T17:18:41.383Z,9.33
2017-08-28T17:21:08.943Z,8.20
2017-08-28T17:23:42.171Z,9.27
2017-08-28T17:26:09.787Z,9.10
2017-08-28T17:28:37.364Z,8.70
2017-08-28T17:31:04.905Z,9.53
2017-08-28T17:33:33.526Z,9.60
2017-08-28T17:36:01.877Z,8.53
2017-08-28T17:38:29.431Z,9.00
2017-08-28T17:40:56.939Z,9.20
2017-08-28T17:43:24.826Z,8.50
2017-08-28T17:45:52.410Z,8.10
2017-08-28T17:48:19.923Z,9.20
2017-08-28T17:50:47.526Z,9.10
2017-08-28T17:53:15.039Z,8.93
2017-08-28T17:55:42.542Z,9.10
2017-08-28T17:58:10.103Z,9.17
2017-08-28T18:00:37.622Z,8.43
2017-08-28T18:03:05.146Z,9.90
2017-08-28T18:05:32.652Z,9.30
2017-08-28T18:08:00.940Z,11.37
2017-08-28T18:10:28.922Z,11.37
2017-08-28T18:12:56.444Z,10.47
2017-08-28T18:15:24.658Z,9.60
2017-08-28T18:17:52.179Z,9.00
2017-08-28T18:20:19.686Z,9.17
2017-08-28T18:22:47.210Z,9.87
2017-08-28T18:25:14.796Z,9.77
2017-08-28T18:27:42.327Z,10.30
2017-08-28T18:30:09.906Z,9.40
2017-08-28T18:32:37.422Z,10.07
2017-08-28T18:35:05.027Z,11.03
2017-08-28T18:37:32.557Z,9.63
2017-08-28T18:40:00.061Z,11.43
2017-08-28T18:42:28.404Z,13.60
2017-08-28T18:44:55.903Z,13.70
2017-08-28T18:47:23.425Z,14.07
2017-08-28T18:49:50.930Z,14.00
2017-08-28T18:52:18.554Z,13.07
2017-08-28T18:54:46.128Z,13.03
2017-08-28T18:57:14.270Z,14.43
2017-08-28T18:59:42.554Z,13.53
2017-08-28T19:02:10.223Z,13.70
2017-08-28T19:04:37.784Z,13.23
2017-08-28T19:07:05.343Z,15.63
2017-08-28T19:09:32.861Z,17.07
2017-08-28T19:12:00.475Z,13.73
2017-08-28T19:14:27.995Z,14.07
2017-08-28T19:16:55.506Z,15.13
2017-08-28T19:19:23.039Z,14.70
2017-08-28T19:21:50.965Z,13.77
2017-08-28T19:24:18.563Z,14.00
2017-08-28T19:26:46.080Z,14.07
2017-08-28T19:29:14.305Z,12.83
2017-08-28T19:31:41.805Z,13.33
2017-08-28T19:34:11.847Z,14.10
2017-08-28T19:36:39.363Z,12.27
2017-08-28T19:39:06.908Z,13.40
2017-08-28T19:41:34.460Z,13.13
2017-08-28T19:44:02.819Z,13.73
2017-08-28T19:46:30.338Z,12.80
2017-08-28T19:48:58.656Z,14.10
2017-08-28T19:51:26.295Z,16.43
2017-08-28T19:53:53.878Z,15.77
2017-08-28T19:56:21.452Z,15.93
2017-08-28T19:58:49.011Z,15.20
2017-08-28T20:01:16.535Z,14.87
2017-08-28T20:03:44.043Z,14.47
2017-08-28T20:06:11.670Z,15.20
2017-08-28T20:08:39.170Z,16.00
2017-08-28T20:11:07.419Z,18.73
2017-08-28T20:13:34.966Z,19.03
2017-08-28T20:16:02.539Z,17.70
2017-08-28T20:18:30.082Z,19.73
2017-08-28T20:20:57.854Z,17.50
2017-08-28T20:23:25.415Z,17.17
2017-08-28T20:25:52.918Z,17.20
2017-08-28T20:28:20.518Z,16.73
2017-08-28T20:30:48.027Z,17.27
2017-08-28T20:33:15.568Z,14.00
2017-08-28T20:35:43.304Z,14.70
2017-08-28T20:38:10.822Z,14.60
2017-08-28T20:40:38.414Z,16.33
2017-08-28T20:43:05.934Z,13.97
2017-08-28T20:45:33.442Z,13.80
2017-08-28T20:48:01.107Z,15.83
2017-08-28T20:50:28.614Z,15.43
2017-08-28T20:52:56.734Z,14.30
2017-08-28T20:55:24.284Z,16.13
2017-08-28T20:57:51.850Z,20.13
2017-08-28T21:00:19.354Z,22.50
2017-08-28T21:02:46.962Z,14.77
2017-08-28T21:05:14.986Z,16.40
2017-08-28T21:07:42.511Z,16.57
2017-08-28T21:10:10.767Z,16.00
2017-08-28T21:12:38.332Z,16.10
2017-08-28T21:15:06.603Z,16.63
2017-08-28T21:17:35.870Z,17.57
2017-08-28T21:20:03.467Z,16.73
2017-08-28T21:22:31.506Z,15.73
2017-08-28T21:24:59.183Z,15.17
2017-08-28T21:27:26.691Z,15.17
2017-08-28T21:29:54.211Z,15.43
2017-08-28T21:32:21.763Z,16.47
2017-08-28T21:34:50.044Z,16.33
2017-08-28T21:37:17.731Z,14.07
2017-08-28T21:39:45.266Z,16.47
2017-08-28T21:42:12.775Z,16.87
2017-08-28T21:44:40.375Z,18.70
2017-08-28T21:47:07.934Z,20.63
2017-08-28T21:49:35.454Z,19.13
2017-08-28T21:52:02.959Z,18.10
2017-08-28T21:54:30.615Z,18.67
2017-08-28T21:56:58.488Z,16.57
2017-08-28T21:59:26.042Z,16.70
2017-08-28T22:01:53.559Z,16.07
2017-08-28T22:04:21.162Z,17.83
2017-08-28T22:06:48.719Z,20.17
2017-08-28T22:09:16.282Z,20.60
2017-08-28T22:11:43.852Z,19.60
2017-08-28T22:14:11.395Z,19.10
2017-08-28T22:16:38.955Z,20.13
2017-08-28T22:19:06.459Z,21.93
2017-08-28T22:21:34.071Z,22.47
2017-08-28T22:24:02.450Z,24.67
2017-08-28T22:26:29.971Z,21.43
2017-08-28T22:28:58.387Z,21.37
2017-08-28T22:31:25.947Z,23.20
2017-08-28T22:33:53.458Z,26.40
2017-08-28T22:36:20.975Z,25.43
2017-08-28T22:38:48.522Z,24.20
2017-08-28T22:41:16.138Z,24.00
2017-08-28T22:43:43.743Z,22.70
2017-08-28T22:46:11.298Z,23.10
2017-08-28T22:48:38.867Z,26.27
2017-08-28T22:51:06.418Z,22.70
2017-08-28T22:53:33.927Z,19.83
2017-08-28T22:56:01.531Z,20.77
2017-08-28T22:58:29.915Z,21.13
2017-08-28T23:00:57.475Z,18.70
2017-08-28T23:03:24.994Z,17.17
2017-08-28T23:05:52.506Z,19.33
2017-08-28T23:08:20.147Z,16.77
2017-08-28T23:10:47.655Z,14.73
2017-08-28T23:13:15.270Z,14.47
2017-08-28T23:15:42.774Z,15.63
2017-08-28T23:18:10.490Z,13.63
2017-08-28T23:20:38.056Z,13.83
2017-08-28T23:23:05.606Z,13.27
2017-08-28T23:25:33.118Z,13.03
2017-08-28T23:28:00.643Z,13.87
2017-08-28T23:30:28.143Z,13.63
2017-08-28T23:32:56.554Z,13.50
2017-08-28T23:35:24.127Z,13.50
2017-08-28T23:37:51.642Z,13.03
2017-08-28T23:40:19.239Z,13.30
2017-08-28T23:42:47.207Z,14.77
2017-08-28T23:45:14.766Z,13.20
2017-08-28T23:47:42.934Z,13.50
2017-08-28T23:50:10.463Z,12.53
2017-08-28T23:52:38.776Z,12.33
2017-08-28T23:55:06.298Z,13.33
2017-08-28T23:57:33.890Z,13.50
